createdAt,value
2023-03-20T00:02:08.611Z,3.48
2023-03-20T00:04:37.983Z,3.44
2023-03-20T00:07:10.663Z,3.39
2023-03-20T00:09:48.640Z,3.34
2023-03-20T00:12:18.777Z,3.31
2023-03-20T00:14:46.781Z,3.29
2023-03-20T00:17:18.234Z,3.29
2023-03-20T00:19:55.876Z,3.31
2023-03-20T00:22:23.910Z,3.34
2023-03-20T00:24:51.869Z,3.36
2023-03-20T00:27:37.231Z,3.37
2023-03-20T00:30:10.217Z,3.36
2023-03-20T00:32:38.788Z,3.32
2023-03-20T00:35:24.252Z,3.26
2023-03-20T00:37:56.324Z,3.18
2023-03-20T00:40:27.117Z,3.10
2023-03-20T00:42:58.266Z,3.06
2023-03-20T00:45:26.450Z,3.04
2023-03-20T00:47:54.541Z,3.03
2023-03-20T00:50:24.591Z,3.04
2023-03-20T00:52:54.124Z,3.06
2023-03-20T00:55:23.029Z,3.11
2023-03-20T00:57:55.923Z,3.14
2023-03-20T01:00:35.473Z,3.14
2023-03-20T01:03:06.511Z,3.12
2023-03-20T01:05:35.103Z,3.06
2023-03-20T01:08:03.493Z,3.01
2023-03-20T01:10:32.260Z,2.95
2023-03-20T01:13:00.848Z,2.92
2023-03-20T01:15:31.404Z,2.90
2023-03-20T01:17:59.520Z,2.91
2023-03-20T01:20:33.012Z,2.95
2023-03-20T01:23:01.287Z,2.99
2023-03-20T01:25:29.544Z,3.04
2023-03-20T01:27:58.198Z,3.07
2023-03-20T01:30:28.823Z,3.09
2023-03-20T01:33:00.929Z,3.10
2023-03-20T01:35:31.717Z,3.08
2023-03-20T01:38:02.907Z,3.05
2023-03-20T01:40:41.627Z,3.01
2023-03-20T01:43:15.143Z,2.95
2023-03-20T01:45:47.524Z,2.92
2023-03-20T01:48:20.348Z,2.90
2023-03-20T01:50:48.739Z,2.91
2023-03-20T01:53:21.478Z,2.93
2023-03-20T01:55:54.723Z,2.98
2023-03-20T01:58:37.285Z,3.01
2023-03-20T02:01:07.810Z,3.01
2023-03-20T02:03:43.783Z,2.93
2023-03-20T02:06:38.715Z,2.85
2023-03-20T02:09:17.315Z,2.77
2023-03-20T02:11:47.749Z,2.66
2023-03-20T02:14:19.844Z,2.56
2023-03-20T02:17:01.151Z,2.47
2023-03-20T02:19:49.377Z,2.38
2023-03-20T02:22:49.759Z,2.23
2023-03-20T02:25:43.711Z,2.05
2023-03-20T02:28:44.845Z,2.04
2023-03-20T02:31:34.201Z,2.05
2023-03-20T02:34:23.878Z,2.03
2023-03-20T02:37:20.857Z,2.06
2023-03-20T02:39:59.674Z,2.06
2023-03-20T02:42:56.181Z,2.06
2023-03-20T02:45:35.405Z,2.01
2023-03-20T02:48:18.052Z,1.98
2023-03-20T02:50:57.788Z,1.92
2023-03-20T02:53:36.868Z,1.92
2023-03-20T02:56:27.816Z,1.95
2023-03-20T02:59:12.826Z,2.01
2023-03-20T03:07:56.126Z,1.98
2023-03-20T03:10:27.469Z,1.96
2023-03-20T03:12:57.830Z,1.90
2023-03-20T03:15:36.504Z,1.83
2023-03-20T03:18:12.965Z,1.66
2023-03-20T03:20:41.534Z,1.52
2023-03-20T03:23:11.742Z,1.44
2023-03-20T03:25:40.727Z,1.33
2023-03-20T03:28:14.614Z,1.27
2023-03-20T03:30:45.546Z,1.25
2023-03-20T03:33:17.393Z,1.25
2023-03-20T03:35:46.457Z,1.29
2023-03-20T03:38:14.602Z,1.29
2023-03-20T03:40:46.747Z,1.28
2023-03-20T03:43:19.062Z,1.24
2023-03-20T03:45:52.567Z,1.22
2023-03-20T03:48:41.189Z,1.24
2023-03-20T03:51:11.444Z,1.21
2023-03-20T03:53:49.209Z,1.20
2023-03-20T03:56:17.765Z,1.21
2023-03-20T03:58:48.947Z,1.13
2023-03-20T04:01:17.344Z,1.02
2023-03-20T04:03:56.460Z,0.92
2023-03-20T04:06:25.986Z,0.85
2023-03-20T04:08:55.308Z,0.92
2023-03-20T04:11:28.568Z,1.03
2023-03-20T04:13:57.833Z,1.15
2023-03-20T04:16:26.390Z,1.25
2023-03-20T04:18:58.947Z,1.31
2023-03-20T04:21:28.604Z,1.36
2023-03-20T04:23:56.483Z,1.38
2023-03-20T04:26:24.722Z,1.25
2023-03-20T04:28:53.578Z,1.06
2023-03-20T04:31:54.460Z,0.83
2023-03-20T04:34:38.467Z,0.67
2023-03-20T04:37:18.165Z,0.56
2023-03-20T04:39:51.999Z,0.49
2023-03-20T04:42:21.016Z,0.49
2023-03-20T04:44:49.360Z,0.53
2023-03-20T04:47:17.623Z,0.64
2023-03-20T04:49:47.932Z,0.75
2023-03-20T04:52:17.844Z,0.82
2023-03-20T04:54:46.838Z,0.87
2023-03-20T04:57:14.836Z,0.91
2023-03-20T04:59:43.372Z,0.91
2023-03-20T05:02:15.126Z,0.89
2023-03-20T05:04:43.431Z,0.87
2023-03-20T05:07:12.279Z,0.86
2023-03-20T05:09:53.611Z,0.90
2023-03-20T05:12:23.013Z,0.94
2023-03-20T05:15:20.666Z,1.03
2023-03-20T05:18:08.336Z,1.12
2023-03-20T05:21:02.827Z,1.26
2023-03-20T05:23:51.466Z,1.47
2023-03-20T05:26:38.328Z,1.60
2023-03-20T05:29:44.937Z,1.69
2023-03-20T05:32:28.315Z,1.76
2023-03-20T05:35:16.461Z,1.83
2023-03-20T05:37:53.590Z,1.89
2023-03-20T05:40:32.750Z,1.94
2023-03-20T05:43:22.668Z,2.00
2023-03-20T05:46:22.903Z,2.08
2023-03-20T05:49:26.926Z,2.20
2023-03-20T05:52:23.062Z,2.33
2023-03-20T05:55:17.007Z,2.46
2023-03-20T05:58:03.521Z,2.59
2023-03-20T06:00:52.372Z,2.74
2023-03-20T06:03:40.920Z,2.86
2023-03-20T06:06:13.093Z,2.98
2023-03-20T06:08:42.084Z,3.06
2023-03-20T06:11:11.452Z,3.11
2023-03-20T06:13:39.888Z,3.15
2023-03-20T06:16:08.890Z,3.21
2023-03-20T06:18:40.412Z,3.26
2023-03-20T06:21:11.842Z,3.30
2023-03-20T06:23:41.044Z,3.36
2023-03-20T06:26:09.827Z,3.42
2023-03-20T06:28:49.100Z,3.51
2023-03-20T06:31:19.417Z,3.61
2023-03-20T06:33:48.765Z,3.73
2023-03-20T06:36:16.834Z,3.84
2023-03-20T06:38:45.496Z,3.90
2023-03-20T06:41:27.737Z,3.98
2023-03-20T06:44:04.706Z,4.11
2023-03-20T06:46:49.142Z,4.22
2023-03-20T06:49:17.094Z,4.31
2023-03-20T06:51:48.444Z,4.40
2023-03-20T06:54:23.136Z,4.47
2023-03-20T06:56:53.106Z,4.53
2023-03-20T06:59:22.752Z,4.59
2023-03-20T07:01:57.424Z,4.65
2023-03-20T07:04:26.448Z,4.71
2023-03-20T07:07:01.377Z,4.81
2023-03-20T07:09:29.538Z,4.92
2023-03-20T07:11:57.502Z,5.01
2023-03-20T07:14:29.385Z,5.14
2023-03-20T07:17:09.657Z,5.30
2023-03-20T07:19:38.834Z,5.44
2023-03-20T07:22:08.857Z,5.53
2023-03-20T07:24:41.486Z,5.62
2023-03-20T07:27:15.784Z,5.73
2023-03-20T07:29:44.183Z,5.83
2023-03-20T07:32:14.687Z,5.89
2023-03-20T07:34:51.287Z,5.95
2023-03-20T07:37:20.566Z,6.02
2023-03-20T07:40:03.172Z,6.09
2023-03-20T07:42:37.166Z,6.17
2023-03-20T07:53:11.236Z,6.61
2023-03-20T07:55:39.741Z,6.69
2023-03-20T07:58:09.001Z,6.77
2023-03-20T08:00:37.794Z,6.83
2023-03-20T08:03:06.062Z,6.89
2023-03-20T08:05:34.342Z,6.94
2023-03-20T08:08:03.036Z,7.00
2023-03-20T08:10:31.203Z,7.09
2023-03-20T08:12:59.680Z,7.16
2023-03-20T08:15:29.736Z,7.24
2023-03-20T08:18:02.478Z,7.33
2023-03-20T08:20:31.927Z,7.41
2023-03-20T08:23:01.002Z,7.45
2023-03-20T08:25:34.819Z,7.51
2023-03-20T08:28:03.768Z,7.57
2023-03-20T08:30:32.340Z,7.62
2023-03-20T08:33:02.338Z,7.69
2023-03-20T08:35:33.656Z,7.73
2023-03-20T08:38:08.108Z,7.79
2023-03-20T08:40:40.322Z,7.87
2023-03-20T08:43:09.290Z,7.94
2023-03-20T08:45:38.185Z,8.00
2023-03-20T08:48:06.677Z,8.07
2023-03-20T08:50:34.869Z,8.15
2023-03-20T08:53:02.852Z,8.20
2023-03-20T08:55:31.013Z,8.24
2023-03-20T08:57:59.041Z,8.27
2023-03-20T09:00:27.694Z,8.36
2023-03-20T09:02:56.233Z,8.44
2023-03-20T09:05:24.995Z,8.50
2023-03-20T09:07:53.027Z,8.55
2023-03-20T09:10:21.038Z,8.60
2023-03-20T09:12:48.987Z,8.65
2023-03-20T09:15:16.940Z,8.71
2023-03-20T09:17:45.584Z,8.76
2023-03-20T09:20:14.043Z,8.77
2023-03-20T09:22:43.900Z,8.78
2023-03-20T09:25:12.408Z,8.83
2023-03-20T09:27:41.215Z,8.87
2023-03-20T09:30:09.646Z,8.94
2023-03-20T09:32:42.037Z,9.03
2023-03-20T09:35:10.046Z,9.10
2023-03-20T09:37:38.901Z,9.16
2023-03-20T09:40:07.551Z,9.22
2023-03-20T09:42:42.727Z,9.30
2023-03-20T09:45:12.185Z,9.36
2023-03-20T09:47:45.236Z,9.43
2023-03-20T09:50:13.604Z,9.51
2023-03-20T09:52:46.480Z,9.55
2023-03-20T09:55:16.035Z,9.57
2023-03-20T09:57:46.073Z,9.61
2023-03-20T10:00:21.275Z,9.68
2023-03-20T10:02:49.704Z,9.77
2023-03-20T10:05:27.989Z,9.86
2023-03-20T10:07:58.782Z,9.89
2023-03-20T10:10:59.543Z,9.92
2023-03-20T10:13:33.563Z,9.94
2023-03-20T10:16:05.979Z,9.98
2023-03-20T10:18:35.466Z,10.03
2023-03-20T10:21:04.787Z,10.00
2023-03-20T10:23:41.403Z,10.02
2023-03-20T10:26:10.889Z,10.09
2023-03-20T10:28:45.695Z,10.14
2023-03-20T10:31:19.916Z,10.18
2023-03-20T10:33:52.249Z,10.14
2023-03-20T10:36:27.275Z,10.16
2023-03-20T10:39:06.977Z,10.19
2023-03-20T10:41:36.644Z,10.25
2023-03-20T10:44:15.490Z,10.34
2023-03-20T10:46:44.801Z,10.39
2023-03-20T10:49:20.468Z,10.45
2023-03-20T10:51:49.607Z,10.56
2023-03-20T10:54:21.486Z,10.65
2023-03-20T10:56:49.795Z,10.68
2023-03-20T10:59:22.799Z,10.67
2023-03-20T11:01:53.589Z,10.73
2023-03-20T11:04:22.347Z,10.85
2023-03-20T11:07:06.980Z,11.00
2023-03-20T11:09:36.420Z,11.07
2023-03-20T11:12:05.012Z,11.12
2023-03-20T11:14:37.963Z,11.15
2023-03-20T11:17:06.603Z,11.28
2023-03-20T11:19:36.185Z,11.42
2023-03-20T11:22:24.890Z,11.50
2023-03-20T11:24:54.967Z,11.55
2023-03-20T11:27:28.086Z,11.60
2023-03-20T11:30:01.890Z,11.69
2023-03-20T11:32:31.263Z,11.78
2023-03-20T11:35:18.416Z,11.85
2023-03-20T11:37:47.581Z,11.82
2023-03-20T11:40:23.097Z,11.86
2023-03-20T11:43:04.274Z,11.98
2023-03-20T11:45:36.251Z,12.06
2023-03-20T11:48:05.817Z,12.10
2023-03-20T11:50:36.373Z,12.09
2023-03-20T11:53:25.899Z,12.05
2023-03-20T11:56:17.389Z,12.18
2023-03-20T11:58:53.546Z,12.35
2023-03-20T12:01:21.511Z,12.41
2023-03-20T12:03:57.993Z,12.43
2023-03-20T12:06:27.464Z,12.51
2023-03-20T12:09:01.248Z,12.56
2023-03-20T12:11:33.950Z,12.68
2023-03-20T12:14:03.671Z,12.79
2023-03-20T12:16:31.884Z,12.79
2023-03-20T12:19:04.762Z,12.77
2023-03-20T12:21:34.925Z,12.74
2023-03-20T12:24:09.655Z,12.78
2023-03-20T12:26:44.463Z,12.84
2023-03-20T12:29:13.045Z,12.96
2023-03-20T12:31:46.625Z,13.08
2023-03-20T12:34:20.376Z,13.16
2023-03-20T12:36:49.558Z,13.08
2023-03-20T12:39:19.019Z,13.02
2023-03-20T12:41:58.012Z,13.03
2023-03-20T12:44:33.364Z,13.07
2023-03-20T12:47:19.964Z,13.13
2023-03-20T12:49:56.032Z,13.06
2023-03-20T12:52:28.410Z,13.06
2023-03-20T12:55:15.419Z,13.17
2023-03-20T12:57:55.275Z,13.33
2023-03-20T13:00:34.162Z,13.35
2023-03-20T13:03:21.241Z,13.25
2023-03-20T13:05:55.806Z,13.27
2023-03-20T13:08:42.779Z,13.37
2023-03-20T13:11:12.359Z,13.48
2023-03-20T13:13:49.107Z,13.42
2023-03-20T13:16:26.490Z,13.45
2023-03-20T13:19:00.541Z,13.48
2023-03-20T13:21:33.793Z,13.55
2023-03-20T13:24:06.228Z,13.67
2023-03-20T13:26:39.070Z,13.76
2023-03-20T13:29:27.113Z,13.85
2023-03-20T13:32:01.758Z,13.99
2023-03-20T13:34:32.889Z,14.07
2023-03-20T13:37:12.374Z,14.01
2023-03-20T13:40:11.645Z,13.78
2023-03-20T13:42:47.678Z,13.72
2023-03-20T13:45:35.264Z,13.74
2023-03-20T13:48:05.730Z,13.82
2023-03-20T13:50:53.565Z,13.80
2023-03-20T13:53:29.652Z,13.81
2023-03-20T13:56:06.528Z,13.86
2023-03-20T13:58:34.674Z,13.89
2023-03-20T14:01:08.405Z,13.82
2023-03-20T14:03:41.633Z,13.79
2023-03-20T14:06:39.446Z,13.77
2023-03-20T14:09:31.361Z,13.74
2023-03-20T14:12:07.473Z,13.78
2023-03-20T14:14:52.609Z,13.74
2023-03-20T14:17:23.923Z,13.61
2023-03-20T14:19:52.298Z,13.51
2023-03-20T14:22:21.453Z,13.50
2023-03-20T14:24:56.970Z,13.49
2023-03-20T14:27:42.909Z,13.47
2023-03-20T14:30:30.900Z,13.46
2023-03-20T14:33:05.533Z,13.44
2023-03-20T14:35:38.231Z,13.49
2023-03-20T14:38:16.026Z,13.60
2023-03-20T14:40:47.659Z,13.65
2023-03-20T14:43:18.270Z,13.64
2023-03-20T14:45:52.803Z,13.60
2023-03-20T14:48:26.839Z,13.59
2023-03-20T14:51:03.746Z,13.55
2023-03-20T14:53:33.572Z,13.59
2023-03-20T14:56:02.322Z,13.53
2023-03-20T14:58:49.771Z,13.39
2023-03-20T15:01:24.382Z,13.21
2023-03-20T15:04:03.171Z,13.02
2023-03-20T15:06:31.418Z,12.85
2023-03-20T15:09:00.981Z,12.74
2023-03-20T15:11:29.341Z,12.72
2023-03-20T15:14:04.610Z,12.57
2023-03-20T15:16:35.382Z,12.42
2023-03-20T15:19:09.812Z,12.39
2023-03-20T15:21:45.026Z,12.35
2023-03-20T15:24:23.577Z,12.34
2023-03-20T15:26:53.373Z,12.26
2023-03-20T15:29:21.433Z,12.15
2023-03-20T15:32:12.338Z,12.08
2023-03-20T15:34:45.164Z,11.98
2023-03-20T15:37:18.093Z,11.91
2023-03-20T15:39:51.335Z,11.89
2023-03-20T15:42:21.356Z,11.87
2023-03-20T15:44:49.838Z,11.76
2023-03-20T15:47:22.233Z,11.69
2023-03-20T15:49:52.001Z,11.60
2023-03-20T15:52:30.746Z,11.55
2023-03-20T15:55:00.020Z,11.51
2023-03-20T15:57:33.642Z,11.40
2023-03-20T16:00:04.816Z,11.28
2023-03-20T16:02:35.163Z,11.18
2023-03-20T16:05:03.485Z,11.14
2023-03-20T16:07:32.910Z,11.10
2023-03-20T16:10:01.051Z,11.07
2023-03-20T16:12:29.327Z,11.03
2023-03-20T16:14:57.543Z,10.99
2023-03-20T16:17:25.551Z,10.94
2023-03-20T16:19:54.031Z,10.89
2023-03-20T16:22:27.615Z,10.84
2023-03-20T16:24:58.287Z,10.80
2023-03-20T16:27:33.368Z,10.75
2023-03-20T16:30:07.245Z,10.70
2023-03-20T16:32:38.225Z,10.65
2023-03-20T16:35:20.276Z,10.60
2023-03-20T16:37:55.571Z,10.53
2023-03-20T16:40:34.028Z,10.48
2023-03-20T16:43:06.831Z,10.44
2023-03-20T16:45:36.627Z,10.40
2023-03-20T16:48:11.218Z,10.34
2023-03-20T16:50:53.734Z,10.27
2023-03-20T16:53:25.697Z,10.14
2023-03-20T16:55:54.121Z,10.05
2023-03-20T16:58:24.345Z,9.93
2023-03-20T17:00:59.959Z,9.83
2023-03-20T17:03:29.660Z,9.74
2023-03-20T17:05:59.156Z,9.64
2023-03-20T17:08:32.079Z,9.51
2023-03-20T17:11:03.331Z,9.39
2023-03-20T17:13:31.683Z,9.28
2023-03-20T17:16:02.128Z,9.17
2023-03-20T17:18:30.234Z,9.06
2023-03-20T17:20:58.180Z,8.91
2023-03-20T17:23:26.997Z,8.77
2023-03-20T17:25:56.566Z,8.66
2023-03-20T17:28:28.652Z,8.55
2023-03-20T17:30:56.924Z,8.47
2023-03-20T17:33:25.145Z,8.40
2023-03-20T17:35:54.185Z,8.33
2023-03-20T17:38:22.357Z,8.25
2023-03-20T17:40:50.720Z,8.16
2023-03-20T17:43:19.138Z,8.09
2023-03-20T17:45:47.704Z,8.03
2023-03-20T17:48:18.494Z,7.97
2023-03-20T17:50:47.120Z,7.92
2023-03-20T17:53:24.211Z,7.85
2023-03-20T17:55:52.850Z,7.80
2023-03-20T17:58:22.946Z,7.76
2023-03-20T18:00:52.809Z,7.72
2023-03-20T18:03:21.261Z,7.67
2023-03-20T18:05:51.005Z,7.62
2023-03-20T18:08:21.454Z,7.56
2023-03-20T18:10:50.083Z,7.50
2023-03-20T18:13:21.139Z,7.42
2023-03-20T18:15:51.928Z,7.35
2023-03-20T18:18:23.770Z,7.30
2023-03-20T18:20:55.117Z,7.24
2023-03-20T18:23:26.094Z,7.19
2023-03-20T18:25:54.111Z,7.15
2023-03-20T18:28:24.675Z,7.12
2023-03-20T18:30:53.316Z,7.08
2023-03-20T18:33:28.084Z,7.04
2023-03-20T18:35:56.548Z,6.99
2023-03-20T18:38:25.922Z,6.96
2023-03-20T18:40:56.490Z,6.93
2023-03-20T18:43:25.009Z,6.88
2023-03-20T18:45:56.766Z,6.84
2023-03-20T18:48:44.833Z,6.80
2023-03-20T18:51:13.420Z,6.76
2023-03-20T18:53:43.118Z,6.72
2023-03-20T18:56:15.209Z,6.67
2023-03-20T18:58:43.309Z,6.61
2023-03-20T19:01:13.021Z,6.57
2023-03-20T19:03:42.827Z,6.51
2023-03-20T19:06:16.134Z,6.46
2023-03-20T19:08:44.679Z,6.41
2023-03-20T19:11:21.244Z,6.36
2023-03-20T19:13:52.423Z,6.31
2023-03-20T19:16:25.767Z,6.29
2023-03-20T19:18:55.319Z,6.27
2023-03-20T19:21:26.417Z,6.25
2023-03-20T19:24:01.951Z,6.22
2023-03-20T19:26:31.034Z,6.19
2023-03-20T19:28:59.374Z,6.17
2023-03-20T19:31:27.901Z,6.14
2023-03-20T19:33:57.047Z,6.13
2023-03-20T19:36:31.519Z,6.09
2023-03-20T19:39:00.663Z,6.07
2023-03-20T19:41:29.522Z,6.03
2023-03-20T19:43:57.552Z,5.97
2023-03-20T19:46:39.596Z,5.93
2023-03-20T19:49:30.730Z,5.90
2023-03-20T19:51:59.082Z,5.90
2023-03-20T19:54:28.743Z,5.92
2023-03-20T19:56:57.520Z,5.91
2023-03-20T19:59:32.717Z,5.91
2023-03-20T20:02:02.109Z,5.90
2023-03-20T20:04:30.354Z,5.89
2023-03-20T20:07:40.721Z,5.87
2023-03-20T20:09:48.068Z,5.81
2023-03-20T20:12:18.674Z,5.74
2023-03-20T20:14:48.338Z,5.65
2023-03-20T20:17:16.484Z,5.58
2023-03-20T20:19:49.151Z,5.51
2023-03-20T20:22:25.338Z,5.45
2023-03-20T20:24:54.701Z,5.40
2023-03-20T20:27:25.415Z,5.40
2023-03-20T20:29:53.457Z,5.40
2023-03-20T20:32:23.898Z,5.52
2023-03-20T20:40:32.602Z,5.81
2023-03-20T20:43:02.596Z,5.85
2023-03-20T20:45:43.691Z,5.87
2023-03-20T20:48:12.650Z,5.84
2023-03-20T20:50:42.054Z,5.80
2023-03-20T20:53:10.505Z,5.78
2023-03-20T20:55:38.970Z,5.77
2023-03-20T20:58:09.201Z,5.74
2023-03-20T21:00:50.688Z,5.72
2023-03-20T21:03:21.528Z,5.64
2023-03-20T21:05:52.649Z,5.59
2023-03-20T21:08:21.241Z,5.57
2023-03-20T21:10:55.490Z,5.51
2023-03-20T21:13:24.046Z,5.45
2023-03-20T21:15:59.224Z,5.36
2023-03-20T21:18:28.677Z,5.25
2023-03-20T21:21:23.203Z,5.21
2023-03-20T21:23:51.320Z,5.23
2023-03-20T21:26:20.571Z,5.25
2023-03-20T21:28:48.498Z,5.29
2023-03-20T21:31:26.770Z,5.38
2023-03-20T21:33:56.715Z,5.51
2023-03-20T21:36:24.732Z,5.61
2023-03-20T21:39:09.480Z,5.72
2023-03-20T21:41:38.401Z,5.78
2023-03-20T21:44:07.206Z,5.76
2023-03-20T21:55:48.222Z,5.35
2023-03-20T22:04:06.411Z,5.20
2023-03-20T22:10:03.315Z,5.12
2023-03-20T22:21:15.991Z,5.02
2023-03-20T22:24:05.764Z,5.08
2023-03-20T22:29:39.376Z,5.24
2023-03-20T22:32:40.162Z,5.31
2023-03-20T22:35:22.900Z,5.34
2023-03-20T22:38:08.500Z,5.35
2023-03-20T22:44:04.800Z,5.25
2023-03-20T22:46:07.685Z,5.22
2023-03-20T22:48:39.814Z,5.19
2023-03-20T22:51:09.325Z,5.13
2023-03-20T22:53:37.653Z,5.05
2023-03-20T22:56:07.044Z,5.01
2023-03-20T22:58:35.312Z,4.99
2023-03-20T23:01:03.919Z,4.98
2023-03-20T23:03:41.536Z,4.96
2023-03-20T23:06:12.413Z,4.94
2023-03-20T23:08:49.276Z,4.93
2023-03-20T23:11:22.746Z,4.91
2023-03-20T23:13:51.674Z,4.88
2023-03-20T23:16:20.039Z,4.85
2023-03-20T23:18:47.971Z,4.80
2023-03-20T23:21:17.321Z,4.77
2023-03-20T23:23:45.948Z,4.79
2023-03-20T23:26:15.559Z,4.82
2023-03-20T23:28:45.191Z,4.89
2023-03-20T23:31:20.850Z,5.00
2023-03-20T23:33:49.841Z,5.05
2023-03-20T23:36:34.502Z,5.02
2023-03-20T23:39:07.316Z,4.97
2023-03-20T23:44:26.325Z,4.83
2023-03-20T23:46:57.773Z,4.79
2023-03-20T23:49:26.991Z,4.74
2023-03-20T23:51:55.027Z,4.71
2023-03-20T23:54:23.517Z,4.68
2023-03-20T23:56:51.352Z,4.68
2023-03-20T23:59:22.407Z,4.71
